Time;durP1;ratioP1;P1;durP2;ratioP2;P2;SDS_P1;SDS_P2;PMS_P1;PMS_P2;Temp;Humidity;BMP_temperature;BMP_pressure;BME280_temperature;BME280_humidity;BME280_pressure;Samples;Min_cycle;Max_cycle;Signal;HPM_P1;HPM_P2
2023/06/03 00:00:36;;;;;;;2.08;0.70;;;10.90;1.00;;;;;;5074458;28;20037;-64
2023/06/03 00:03:02;;;;;;;1.42;0.52;;;11.00;1.00;;;;;;5074358;28;20044;-64
2023/06/03 00:05:28;;;;;;;0.95;0.52;;;10.80;1.00;;;;;;5056432;28;20047;-65
2023/06/03 00:07:53;;;;;;;0.65;0.55;;;10.80;1.00;;;;;;5056449;28;20036;-64
2023/06/03 00:10:19;;;;;;;4.13;0.70;;;10.80;1.00;;;;;;5074660;28;20043;-64
2023/06/03 00:12:47;;;;;;;1.02;0.70;;;10.80;1.00;;;;;;5074367;28;20132;-64
2023/06/03 00:15:13;;;;;;;1.38;0.75;;;10.80;1.00;;;;;;5073357;28;20051;-64
2023/06/03 00:17:39;;;;;;;0.40;0.40;;;10.80;1.00;;;;;;5039728;28;20151;-64
2023/06/03 00:20:09;;;;;;;0.50;0.50;;;10.70;1.00;;;;;;5074112;28;20028;-64
2023/06/03 00:22:36;;;;;;;0.60;0.50;;;10.70;1.00;;;;;;5074392;28;20116;-64
2023/06/03 00:25:03;;;;;;;0.82;0.70;;;10.70;1.00;;;;;;5074169;28;20461;-64
2023/06/03 00:27:28;;;;;;;0.30;0.30;;;10.70;1.00;;;;;;5074288;28;20097;-64
2023/06/03 00:29:54;;;;;;;1.27;0.68;;;10.70;1.00;;;;;;5074249;28;20041;-64
2023/06/03 00:32:20;;;;;;;1.52;1.17;;;10.70;1.00;;;;;;5074174;28;20032;-64
2023/06/03 00:34:46;;;;;;;2.28;0.68;;;11.20;1.00;;;;;;5074021;28;20476;-64
2023/06/03 00:37:11;;;;;;;2.05;0.75;;;11.70;1.00;;;;;;5073751;28;20044;-64
2023/06/03 00:39:37;;;;;;;0.68;0.52;;;10.60;1.00;;;;;;5073735;28;20052;-64
2023/06/03 00:42:03;;;;;;;1.42;0.68;;;10.60;1.00;;;;;;5073680;28;20094;-65
2023/06/03 00:44:28;;;;;;;0.98;0.73;;;10.50;1.00;;;;;;5073816;28;20029;-64
2023/06/03 00:46:54;;;;;;;2.65;0.60;;;10.50;1.00;;;;;;5073587;28;20492;-65
2023/06/03 00:49:20;;;;;;;1.10;0.60;;;10.50;1.00;;;;;;5073582;28;20044;-64
2023/06/03 00:51:46;;;;;;;0.45;0.40;;;10.40;1.00;;;;;;5073821;28;20076;-64
2023/06/03 00:54:13;;;;;;;1.08;0.50;;;10.40;1.00;;;;;;5055567;28;20162;-64
2023/06/03 00:56:43;;;;;;;0.50;0.50;;;10.30;1.00;;;;;;5073736;28;20404;-64
2023/06/03 00:59:17;;;;;;;0.90;0.57;;;10.30;1.00;;;;;;5073469;28;20115;-64
2023/06/03 01:01:43;;;;;;;2.40;0.60;;;10.30;1.00;;;;;;5073162;28;20033;-64
2023/06/03 01:04:25;;;;;;;0.75;0.60;;;10.30;1.00;;;;;;5055661;28;20072;-64
2023/06/03 01:07:16;;;;;;;1.35;0.70;;;8.00;1.00;;;;;;5073234;28;20444;-64
2023/06/03 01:09:55;;;;;;;0.57;0.50;;;10.20;1.00;;;;;;5073415;28;20048;-66
2023/06/03 01:12:34;;;;;;;1.48;0.55;;;10.10;1.00;;;;;;5072945;28;20048;-65
2023/06/03 01:15:08;;;;;;;0.88;0.63;;;10.10;1.00;;;;;;5073392;28;20404;-65
2023/06/03 01:17:39;;;;;;;1.45;0.52;;;10.10;1.00;;;;;;5038576;28;20052;-65
2023/06/03 01:20:10;;;;;;;3.22;0.50;;;10.10;1.00;;;;;;5073279;28;20041;-65
2023/06/03 01:22:41;;;;;;;0.98;0.57;;;10.00;1.00;;;;;;5072991;28;20036;-66
2023/06/03 01:25:08;;;;;;;;;;;10.00;1.00;;;;;;5073326;28;20107;-64
2023/06/03 01:27:36;;;;;;;1.15;0.75;;;10.00;1.00;;;;;;5073099;28;19938;-64
2023/06/03 01:30:03;;;;;;;2.53;0.60;;;9.90;1.00;;;;;;5055029;28;20044;-64
2023/06/03 01:32:30;;;;;;;0.70;0.40;;;9.90;1.00;;;;;;5073122;28;20396;-64
2023/06/03 01:34:56;;;;;;;2.55;0.63;;;9.90;1.00;;;;;;5073113;28;20119;-64
2023/06/03 01:37:22;;;;;;;0.28;0.28;;;9.90;1.00;;;;;;5073137;28;20102;-64
2023/06/03 01:39:49;;;;;;;5.20;0.73;;;10.20;1.00;;;;;;5072985;28;20044;-64
2023/06/03 01:42:15;;;;;;;0.30;0.30;;;9.90;1.00;;;;;;5072836;28;20051;-64
2023/06/03 01:44:41;;;;;;;0.68;0.50;;;9.90;1.00;;;;;;5055049;28;20572;-64
2023/06/03 01:47:08;;;;;;;1.13;0.50;;;9.90;1.00;;;;;;5054895;28;20043;-64
2023/06/03 01:49:33;;;;;;;0.45;0.38;;;9.80;1.00;;;;;;5054711;28;20234;-64
2023/06/03 01:52:00;;;;;;;0.98;0.68;;;9.80;1.00;;;;;;5072936;28;20124;-64
2023/06/03 01:54:27;;;;;;;1.23;0.70;;;9.80;1.00;;;;;;5072853;28;20044;-64
2023/06/03 01:56:53;;;;;;;0.85;0.43;;;9.70;1.00;;;;;;5072829;28;20041;-64
2023/06/03 01:59:23;;;;;;;2.00;0.50;;;9.70;1.00;;;;;;5072899;28;20040;-64
2023/06/03 02:01:53;;;;;;;0.40;0.40;;;9.60;1.00;;;;;;5072803;28;20076;-64
2023/06/03 02:04:19;;;;;;;1.03;0.57;;;9.60;1.00;;;;;;5072356;28;20040;-64
2023/06/03 02:06:56;;;;;;;1.30;0.50;;;9.60;1.00;;;;;;5054810;28;20044;-64
2023/06/03 02:09:27;;;;;;;0.90;0.43;;;9.60;1.00;;;;;;5072743;28;20448;-64
2023/06/03 02:11:56;;;;;;;0.90;0.52;;;9.60;1.00;;;;;;5072679;28;20037;-64
2023/06/03 02:14:23;;;;;;;0.40;0.40;;;9.50;1.00;;;;;;5072290;28;20045;-64
2023/06/03 02:16:49;;;;;;;0.90;0.55;;;9.40;1.00;;;;;;5072314;28;20051;-64
2023/06/03 02:19:20;;;;;;;0.55;0.47;;;9.40;1.00;;;;;;5072664;28;20045;-64
2023/06/03 02:21:47;;;;;;;0.90;0.47;;;9.40;1.00;;;;;;5037809;28;20037;-64
2023/06/03 02:24:17;;;;;;;0.50;0.43;;;9.40;1.00;;;;;;5054678;28;20033;-64
2023/06/03 02:26:50;;;;;;;0.77;0.45;;;9.30;1.00;;;;;;5072610;28;20131;-64
2023/06/03 02:29:17;;;;;;;0.98;0.60;;;9.30;1.00;;;;;;5072577;28;20090;-64
2023/06/03 02:31:44;;;;;;;0.82;0.57;;;9.50;1.00;;;;;;5072469;28;20450;-64
2023/06/03 02:34:09;;;;;;;0.88;0.30;;;9.20;1.00;;;;;;5072189;28;20032;-64
2023/06/03 02:36:35;;;;;;;1.75;0.43;;;9.20;1.00;;;;;;5072114;28;20082;-64
2023/06/03 02:39:01;;;;;;;1.50;0.68;;;9.10;1.00;;;;;;5056551;28;20055;-64
2023/06/03 02:41:27;;;;;;;0.75;0.50;;;9.10;1.00;;;;;;5076302;28;20079;-64
2023/06/03 02:43:52;;;;;;;0.88;0.55;;;9.00;1.00;;;;;;5041800;28;20048;-64
2023/06/03 02:46:18;;;;;;;1.30;0.70;;;9.10;1.00;;;;;;5076104;28;20051;-65
2023/06/03 02:48:43;;;;;;;1.45;0.38;;;9.10;1.00;;;;;;5076033;28;20047;-64
2023/06/03 02:51:09;;;;;;;1.95;0.63;;;9.30;58.20;;;;;;5075818;28;20595;-64
2023/06/03 02:53:35;;;;;;;2.33;0.50;;;8.90;99.90;;;;;;5075767;28;20036;-64
2023/06/03 02:56:00;;;;;;;1.15;0.63;;;9.30;99.90;;;;;;5057791;28;20143;-64
2023/06/03 02:58:26;;;;;;;0.80;0.50;;;10.20;99.90;;;;;;5058165;28;20106;-64
2023/06/03 03:00:55;;;;;;;1.08;0.80;;;;;;;;;;5058383;28;20119;-65
2023/06/03 03:03:20;;;;;;;1.02;0.50;;;9.00;1.00;;;;;;5075821;28;20057;-64
2023/06/03 03:05:48;;;;;;;1.52;0.60;;;8.90;1.00;;;;;;5057678;28;20053;-65
2023/06/03 03:08:13;;;;;;;0.80;0.50;;;9.80;1.00;;;;;;5057581;28;20381;-64
2023/06/03 03:10:39;;;;;;;0.40;0.40;;;8.90;1.00;;;;;;5075659;28;20052;-64
2023/06/03 03:13:04;;;;;;;1.02;0.60;;;8.90;1.00;;;;;;5057302;28;20123;-64
2023/06/03 03:15:30;;;;;;;1.83;0.55;;;8.80;1.00;;;;;;5075628;28;20044;-64
2023/06/03 03:17:56;;;;;;;2.45;0.80;;;8.70;1.00;;;;;;5075495;28;20123;-64
2023/06/03 03:20:22;;;;;;;1.35;0.70;;;8.80;1.00;;;;;;5075539;28;20052;-64
2023/06/03 03:22:47;;;;;;;0.82;0.70;;;8.80;1.00;;;;;;5075458;28;20051;-64
2023/06/03 03:25:14;;;;;;;0.70;0.40;;;8.80;1.00;;;;;;5075443;28;20041;-64
2023/06/03 03:27:40;;;;;;;0.98;0.60;;;9.10;1.00;;;;;;5075404;28;20033;-64
2023/06/03 03:30:07;;;;;;;0.68;0.50;;;8.70;1.00;;;;;;5075335;28;20551;-64
2023/06/03 03:32:36;;;;;;;1.77;0.60;;;8.60;1.00;;;;;;5075344;28;20147;-64
2023/06/03 03:35:18;;;;;;;0.68;0.47;;;8.60;1.00;;;;;;5075310;28;20142;-64
2023/06/03 03:37:44;;;;;;;2.03;0.80;;;8.60;1.00;;;;;;5075157;28;20089;-64
2023/06/03 03:40:21;;;;;;;3.75;0.60;;;8.60;1.00;;;;;;5075172;28;20075;-64
2023/06/03 03:42:54;;;;;;;0.77;0.52;;;8.70;1.00;;;;;;5075098;28;20382;-64
2023/06/03 03:45:22;;;;;;;2.80;0.70;;;8.60;1.00;;;;;;5074983;28;20389;-64
2023/06/03 03:47:49;;;;;;;1.17;0.60;;;8.70;1.00;;;;;;5074705;28;20047;-64
2023/06/03 03:50:32;;;;;;;0.70;0.47;;;8.70;1.00;;;;;;5073511;28;20049;-64
2023/06/03 03:53:01;;;;;;;3.00;0.85;;;8.70;1.00;;;;;;5056851;28;20048;-64
2023/06/03 03:55:27;;;;;;;2.72;0.88;;;8.70;1.00;;;;;;5074607;28;20044;-64
2023/06/03 03:57:52;;;;;;;1.45;0.70;;;9.30;1.00;;;;;;5074774;28;20124;-65
2023/06/03 04:00:21;;;;;;;1.42;0.73;;;8.70;1.00;;;;;;5074851;28;20063;-64
2023/06/03 04:02:49;;;;;;;1.73;0.75;;;8.70;1.00;;;;;;5074464;28;20040;-64
2023/06/03 04:05:16;;;;;;;1.20;0.82;;;8.70;1.00;;;;;;5074640;28;20048;-64
2023/06/03 04:07:46;;;;;;;4.03;0.85;;;8.70;1.00;;;;;;5074575;28;20037;-64
2023/06/03 04:10:12;;;;;;;1.40;0.60;;;8.70;1.00;;;;;;5074315;28;20127;-64
2023/06/03 04:12:38;;;;;;;1.92;0.73;;;8.80;1.00;;;;;;5074153;28;20094;-64
2023/06/03 04:15:04;;;;;;;1.10;0.70;;;8.80;1.00;;;;;;5074398;28;20044;-64
2023/06/03 04:17:30;;;;;;;6.82;0.80;;;8.90;1.00;;;;;;5074094;28;20040;-64
2023/06/03 04:20:00;;;;;;;1.88;0.68;;;8.90;1.00;;;;;;5074148;28;20552;-64
2023/06/03 04:22:26;;;;;;;0.70;0.43;;;8.90;1.00;;;;;;5074016;28;20119;-64
2023/06/03 04:24:57;;;;;;;1.63;0.73;;;9.00;1.00;;;;;;5073799;28;20044;-64
2023/06/03 04:27:24;;;;;;;1.48;0.60;;;9.00;1.00;;;;;;5074296;28;20041;-64
2023/06/03 04:29:50;;;;;;;1.00;0.60;;;9.00;1.00;;;;;;5073843;28;20067;-64
2023/06/03 04:32:16;;;;;;;2.03;0.80;;;9.10;1.00;;;;;;5055928;28;20036;-64
2023/06/03 04:34:52;;;;;;;1.52;0.88;;;9.20;1.00;;;;;;5073764;28;20044;-64
2023/06/03 04:37:19;;;;;;;1.58;0.70;;;9.20;1.00;;;;;;5055950;28;20400;-64
2023/06/03 04:39:44;;;;;;;1.05;0.80;;;9.20;1.00;;;;;;5055730;28;20044;-64
2023/06/03 04:42:12;;;;;;;0.98;0.68;;;9.30;1.00;;;;;;5073871;28;20142;-64
2023/06/03 04:44:39;;;;;;;0.70;0.70;;;9.40;1.00;;;;;;5055699;28;20051;-64
2023/06/03 04:47:10;;;;;;;1.67;0.60;;;9.40;1.00;;;;;;5073472;28;20117;-64
2023/06/03 04:49:39;;;;;;;0.63;0.50;;;9.50;1.00;;;;;;5073771;28;20492;-64
2023/06/03 04:52:09;;;;;;;1.17;0.68;;;9.50;1.00;;;;;;5073401;28;20043;-64
2023/06/03 04:54:36;;;;;;;0.80;0.53;;;9.60;1.00;;;;;;5073385;28;20045;-64
2023/06/03 04:57:02;;;;;;;0.63;0.60;;;9.60;1.00;;;;;;5073349;28;20094;-64
2023/06/03 04:59:27;;;;;;;4.55;0.77;;;9.80;1.00;;;;;;5055462;28;20052;-64
2023/06/03 05:01:53;;;;;;;3.90;0.88;;;9.80;1.00;;;;;;5073243;28;20080;-64
2023/06/03 05:04:19;;;;;;;1.02;0.77;;;9.90;1.00;;;;;;5073614;28;20040;-65
2023/06/03 05:06:46;;;;;;;0.85;0.70;;;10.00;1.00;;;;;;5073393;28;20044;-65
2023/06/03 05:09:13;;;;;;;1.60;0.88;;;10.10;1.00;;;;;;5055577;28;20048;-64
2023/06/03 05:11:38;;;;;;;1.83;0.60;;;10.20;1.00;;;;;;5055548;28;20036;-64
2023/06/03 05:14:04;;;;;;;5.15;1.08;;;10.40;1.00;;;;;;5072939;28;20054;-64
2023/06/03 05:16:30;;;;;;;1.90;0.80;;;10.50;1.00;;;;;;5073372;28;20044;-64
2023/06/03 05:18:55;;;;;;;0.77;0.50;;;10.50;1.00;;;;;;5073252;28;20044;-64
2023/06/03 05:21:21;;;;;;;1.33;0.90;;;10.70;1.00;;;;;;5073094;28;20040;-63
2023/06/03 05:23:47;;;;;;;2.47;0.70;;;11.60;1.00;;;;;;5073225;28;20043;-64
2023/06/03 05:26:12;;;;;;;1.38;0.90;;;10.90;1.00;;;;;;5073145;28;20136;-63
2023/06/03 05:28:38;;;;;;;2.10;0.80;;;11.00;1.00;;;;;;5073190;28;20587;-64
2023/06/03 05:31:04;;;;;;;1.58;0.63;;;11.10;1.00;;;;;;5072863;28;20500;-64
2023/06/03 05:33:31;;;;;;;1.45;0.80;;;11.20;1.00;;;;;;5073131;28;20476;-64
2023/06/03 05:35:57;;;;;;;1.65;0.98;;;11.30;1.00;;;;;;5054823;28;20412;-64
2023/06/03 05:38:23;;;;;;;1.55;0.70;;;11.50;1.00;;;;;;5072723;28;20047;-64
2023/06/03 05:40:52;;;;;;;0.85;0.70;;;11.80;1.00;;;;;;5073052;28;20373;-64
2023/06/03 05:43:19;;;;;;;0.95;0.70;;;11.70;1.00;;;;;;5055177;28;20029;-64
2023/06/03 05:45:45;;;;;;;1.70;0.75;;;12.90;1.00;;;;;;5072912;28;20473;-64
2023/06/03 05:48:10;;;;;;;1.52;0.82;;;12.00;1.00;;;;;;5054770;28;20041;-65
2023/06/03 05:50:38;;;;;;;1.40;0.80;;;12.20;1.00;;;;;;5073001;28;20557;-64
2023/06/03 05:53:05;;;;;;;0.60;0.55;;;12.40;1.00;;;;;;5072560;28;20043;-65
2023/06/03 05:55:31;;;;;;;1.80;0.95;;;12.50;1.00;;;;;;5072970;28;20373;-64
2023/06/03 05:57:57;;;;;;;1.77;0.73;;;12.60;1.00;;;;;;5072934;28;20119;-64
2023/06/03 06:00:23;;;;;;;0.95;0.65;;;13.10;1.00;;;;;;5072869;28;20079;-64
2023/06/03 06:02:48;;;;;;;0.82;0.60;;;12.80;1.00;;;;;;5072751;28;20047;-64
2023/06/03 06:05:17;;;;;;;1.48;1.00;;;13.70;1.00;;;;;;5072699;28;20388;-64
2023/06/03 06:07:43;;;;;;;1.63;0.70;;;12.90;1.00;;;;;;5072708;28;20452;-64
2023/06/03 06:10:09;;;;;;;1.98;0.90;;;13.00;1.00;;;;;;5072775;28;20065;-64
2023/06/03 06:12:34;;;;;;;2.60;1.00;;;13.00;1.00;;;;;;5072539;28;20127;-64
2023/06/03 06:15:00;;;;;;;4.57;0.95;;;13.00;1.00;;;;;;5058246;28;20222;-64
2023/06/03 06:17:26;;;;;;;1.15;0.80;;;13.10;1.00;;;;;;5076748;28;20037;-64
2023/06/03 06:19:51;;;;;;;1.38;0.60;;;13.20;1.00;;;;;;5076439;28;20507;-64
2023/06/03 06:22:17;;;;;;;1.60;0.60;;;13.30;1.00;;;;;;5058753;28;20040;-64
2023/06/03 06:24:43;;;;;;;1.15;0.60;;;13.30;1.00;;;;;;5076648;28;21998;-64
2023/06/03 06:27:09;;;;;;;2.20;0.60;;;13.40;1.00;;;;;;5076378;28;20123;-65
2023/06/03 06:29:35;;;;;;;2.15;0.95;;;13.50;1.00;;;;;;5076487;28;20044;-65
2023/06/03 06:32:01;;;;;;;1.92;0.90;;;13.60;1.00;;;;;;5076373;28;20044;-65
2023/06/03 06:34:31;;;;;;;1.40;0.73;;;13.70;1.00;;;;;;5058372;28;20123;-66
2023/06/03 06:36:58;;;;;;;2.22;0.57;;;13.80;1.00;;;;;;5059199;28;20047;-65
2023/06/03 06:39:32;;;;;;;1.00;0.63;;;13.80;1.00;;;;;;5076281;28;20043;-65
2023/06/03 06:42:28;;;;;;;1.05;0.55;;;13.90;1.00;;;;;;5058289;28;20123;-65
2023/06/03 06:44:54;;;;;;;1.20;0.50;;;14.00;1.00;;;;;;5076099;28;20048;-64
2023/06/03 06:47:22;;;;;;;2.22;0.80;;;14.10;1.00;;;;;;5075880;28;20502;-65
2023/06/03 06:49:52;;;;;;;1.30;0.65;;;14.10;1.00;;;;;;5057928;28;20040;-66
2023/06/03 06:52:22;;;;;;;1.40;0.60;;;14.10;1.00;;;;;;5076103;28;20033;-64
2023/06/03 06:54:48;;;;;;;1.13;0.50;;;14.10;1.00;;;;;;5076076;28;20043;-64
2023/06/03 06:57:23;;;;;;;0.85;0.60;;;14.10;1.00;;;;;;5076001;28;20072;-65
2023/06/03 06:59:52;;;;;;;1.67;0.70;;;14.10;1.00;;;;;;5075891;28;20443;-66
2023/06/03 07:02:19;;;;;;;0.60;0.43;;;14.20;1.00;;;;;;5075704;28;20036;-66
2023/06/03 07:04:45;;;;;;;0.50;0.30;;;14.30;1.00;;;;;;5075772;28;20389;-71
2023/06/03 07:07:12;;;;;;;1.67;0.50;;;14.50;1.00;;;;;;5075841;28;20043;-68
2023/06/03 07:09:38;;;;;;;0.77;0.50;;;14.70;1.00;;;;;;5057675;28;20068;-65
2023/06/03 07:12:04;;;;;;;0.80;0.50;;;15.00;1.00;;;;;;5057466;28;20079;-66
2023/06/03 07:14:30;;;;;;;1.83;0.60;;;15.20;1.00;;;;;;5075100;28;20504;-66
2023/06/03 07:16:56;;;;;;;1.17;0.82;;;15.50;1.00;;;;;;5075256;28;20041;-66
2023/06/03 07:19:22;;;;;;;1.30;0.60;;;15.80;1.00;;;;;;5075257;28;20032;-65
2023/06/03 07:21:48;;;;;;;0.47;0.40;;;15.90;1.00;;;;;;5075512;28;20029;-65
2023/06/03 07:24:15;;;;;;;0.30;0.30;;;16.40;1.00;;;;;;5075281;28;20052;-65
2023/06/03 07:26:41;;;;;;;0.65;0.45;;;16.20;1.00;;;;;;5075089;28;20048;-65
2023/06/03 07:29:06;;;;;;;0.80;0.60;;;16.50;1.00;;;;;;5075328;28;20032;-65
2023/06/03 07:31:36;;;;;;;1.17;0.60;;;16.60;1.00;;;;;;5075303;28;20115;-65
2023/06/03 07:34:02;;;;;;;2.47;0.75;;;16.80;1.00;;;;;;5075289;28;20044;-65
2023/06/03 07:36:28;;;;;;;1.40;0.52;;;17.00;1.00;;;;;;5075331;28;20036;-65
2023/06/03 07:39:08;;;;;;;0.20;0.20;;;17.10;1.00;;;;;;5075306;28;20400;-65
2023/06/03 07:41:53;;;;;;;1.60;0.52;;;17.30;1.00;;;;;;5075264;28;20460;-65
2023/06/03 07:44:43;;;;;;;2.40;0.70;;;17.40;1.00;;;;;;5057250;28;20101;-65
2023/06/03 07:47:12;;;;;;;0.30;0.30;;;17.60;1.00;;;;;;5074175;28;20049;-65
2023/06/03 07:49:38;;;;;;;0.38;0.38;;;17.70;8.90;;;;;;5057216;28;20084;-65
2023/06/03 07:52:04;;;;;;;0.80;0.55;;;17.80;1.20;;;;;;5075032;28;20086;-65
2023/06/03 07:54:29;;;;;;;1.08;0.52;;;17.80;1.80;;;;;;5074936;28;20071;-65
2023/06/03 07:56:57;;;;;;;0.73;0.40;;;18.00;6.70;;;;;;5074858;28;20400;-67
2023/06/03 07:59:24;;;;;;;0.35;0.30;;;18.20;2.20;;;;;;5056720;28;20119;-67
2023/06/03 08:01:51;;;;;;;2.60;0.35;;;18.20;1.10;;;;;;5074839;28;20086;-66
2023/06/03 08:04:19;;;;;;;0.40;0.40;;;18.40;1.20;;;;;;5074538;28;20094;-66
2023/06/03 08:06:46;;;;;;;2.35;0.60;;;18.50;6.80;;;;;;5056426;28;20040;-66
2023/06/03 08:09:24;;;;;;;7.28;6.15;;;18.60;3.50;;;;;;5074626;28;20098;-67
2023/06/03 08:11:50;;;;;;;1.60;0.88;;;18.60;2.40;;;;;;5074294;28;20091;-65
2023/06/03 08:14:16;;;;;;;0.30;0.30;;;18.90;3.20;;;;;;5074217;28;20080;-66
2023/06/03 08:16:41;;;;;;;4.78;0.65;;;18.80;3.70;;;;;;5074516;28;20040;-67
2023/06/03 08:19:11;;;;;;;0.32;0.32;;;18.80;1.00;;;;;;5073988;28;20504;-66
2023/06/03 08:21:37;;;;;;;0.32;0.32;;;19.00;2.30;;;;;;5074013;28;20044;-66
2023/06/03 08:24:03;;;;;;;4.03;3.03;;;19.20;2.90;;;;;;5074265;28;20520;-66
2023/06/03 08:26:29;;;;;;;0.73;0.50;;;19.30;4.30;;;;;;5073969;28;20239;-66
2023/06/03 08:28:55;;;;;;;2.22;0.45;;;19.50;5.20;;;;;;5055957;28;20049;-66
2023/06/03 08:31:20;;;;;;;1.50;0.70;;;19.60;5.40;;;;;;5074190;28;20045;-66
2023/06/03 08:33:46;;;;;;;0.85;0.40;;;19.60;6.10;;;;;;5073748;28;20396;-66
2023/06/03 08:36:12;;;;;;;0.98;0.50;;;19.70;6.10;;;;;;5073319;28;20119;-66
2023/06/03 08:38:40;;;;;;;2.33;0.50;;;19.70;4.70;;;;;;5073682;28;20400;-66
2023/06/03 08:41:06;;;;;;;0.35;0.35;;;19.60;3.80;;;;;;5055776;28;20036;-66
2023/06/03 08:43:48;;;;;;;0.95;0.40;;;19.40;1.50;;;;;;5056103;28;20039;-65
2023/06/03 08:46:31;;;;;;;2.05;0.50;;;19.30;1.00;;;;;;5073820;28;20044;-66
2023/06/03 08:49:03;;;;;;;0.47;0.30;;;19.00;1.00;;;;;;5073748;28;20124;-66
2023/06/03 08:51:38;;;;;;;1.25;0.30;;;18.80;1.00;;;;;;5073808;28;20041;-66
2023/06/03 08:54:13;;;;;;;1.27;0.40;;;18.60;1.00;;;;;;5073624;28;20550;-65
2023/06/03 08:56:45;;;;;;;2.50;0.60;;;18.40;1.00;;;;;;5073401;28;20067;-65
2023/06/03 08:59:20;;;;;;;0.50;0.30;;;18.30;1.00;;;;;;5055565;28;20535;-65
2023/06/03 09:01:49;;;;;;;0.70;0.60;;;18.90;1.00;;;;;;5055165;28;20037;-66
2023/06/03 09:04:16;;;;;;;1.08;0.65;;;17.90;1.00;;;;;;5073435;28;20115;-65
2023/06/03 09:06:44;;;;;;;0.70;0.45;;;17.90;1.00;;;;;;5055459;28;20044;-66
2023/06/03 09:09:12;;;;;;;2.53;0.50;;;17.90;1.00;;;;;;5073483;28;20040;-66
2023/06/03 09:11:42;;;;;;;2.35;1.08;;;18.10;1.00;;;;;;5073343;28;20032;-66
2023/06/03 09:14:09;;;;;;;0.30;0.30;;;18.20;1.00;;;;;;5072749;28;20048;-66
2023/06/03 09:16:36;;;;;;;1.45;0.43;;;18.40;1.00;;;;;;5072951;28;20044;-66
2023/06/03 09:19:03;;;;;;;5.72;0.43;;;18.60;1.00;;;;;;5072858;28;20129;-65
2023/06/03 09:21:29;;;;;;;1.00;0.57;;;18.90;1.00;;;;;;5072876;28;20059;-66
2023/06/03 09:23:55;;;;;;;0.98;0.52;;;18.90;1.00;;;;;;5072792;28;20036;-65
2023/06/03 09:26:21;;;;;;;1.20;0.40;;;18.80;1.00;;;;;;5073097;28;20047;-65
2023/06/03 09:28:48;;;;;;;0.82;0.40;;;18.90;1.00;;;;;;5054880;28;20036;-65
2023/06/03 09:31:13;;;;;;;0.38;0.38;;;19.00;1.00;;;;;;5055380;28;20495;-65
2023/06/03 09:33:41;;;;;;;0.93;0.45;;;19.10;1.00;;;;;;5073005;28;20036;-65
2023/06/03 09:36:06;;;;;;;1.67;0.60;;;19.40;1.00;;;;;;5073081;28;20040;-65
2023/06/03 09:38:54;;;;;;;0.50;0.47;;;19.20;1.00;;;;;;5073058;28;20357;-65
2023/06/03 09:41:26;;;;;;;0.40;0.40;;;19.20;1.00;;;;;;5072950;28;20053;-65
2023/06/03 09:44:03;;;;;;;0.82;0.55;;;19.30;1.00;;;;;;5054727;28;20044;-65
2023/06/03 09:46:33;;;;;;;3.08;0.60;;;19.30;1.00;;;;;;5072574;28;20036;-69
2023/06/03 09:49:12;;;;;;;0.88;0.40;;;19.20;1.00;;;;;;5054787;28;20534;-68
2023/06/03 09:51:46;;;;;;;1.17;0.73;;;19.40;6.90;;;;;;5054742;28;20086;-66
2023/06/03 09:54:16;;;;;;;0.93;0.70;;;19.90;1.00;;;;;;5072557;28;20037;-69
2023/06/03 09:56:44;;;;;;;;;;;19.40;1.00;;;;;;5055115;28;20105;-66
2023/06/03 09:59:21;;;;;;;0.60;0.50;;;19.50;1.00;;;;;;5072470;28;19924;-66
2023/06/03 10:01:48;;;;;;;0.75;0.40;;;19.70;1.00;;;;;;5072732;28;20036;-69
2023/06/03 10:04:36;;;;;;;0.35;0.35;;;19.50;1.00;;;;;;5072856;28;20448;-69
2023/06/03 10:07:19;;;;;;;1.33;0.40;;;19.40;1.00;;;;;;5072753;28;20550;-70
2023/06/03 10:09:47;;;;;;;0.55;0.45;;;19.30;1.00;;;;;;5072482;28;20094;-66
2023/06/03 10:12:28;;;;;;;249.75;137.35;;;19.30;1.00;;;;;;5054254;28;20033;-66
2023/06/03 10:14:55;;;;;;;7.38;5.97;;;19.50;1.00;;;;;;5054402;28;20045;-66
2023/06/03 10:17:21;;;;;;;3.88;2.72;;;19.50;1.00;;;;;;5054426;28;20087;-65
2023/06/03 10:19:47;;;;;;;2.38;2.10;;;19.60;1.00;;;;;;5072514;28;20457;-66
2023/06/03 10:22:20;;;;;;;1.80;1.17;;;19.70;1.00;;;;;;5054783;28;20080;-65
2023/06/03 10:24:49;;;;;;;2.45;1.20;;;19.70;1.00;;;;;;5038478;28;20511;-66
2023/06/03 10:27:17;;;;;;;0.98;0.75;;;19.60;1.00;;;;;;5072681;28;20051;-66
2023/06/03 10:29:43;;;;;;;1.95;0.50;;;19.60;1.00;;;;;;5072573;28;20032;-69
2023/06/03 10:32:14;;;;;;;0.70;0.50;;;19.70;1.00;;;;;;5038252;28;20040;-69
2023/06/03 10:34:41;;;;;;;1.73;0.68;;;19.80;1.00;;;;;;5054319;28;20040;-70
2023/06/03 10:37:09;;;;;;;0.43;0.40;;;19.90;1.00;;;;;;5054344;28;20083;-69
2023/06/03 10:39:35;;;;;;;0.55;0.40;;;19.90;1.00;;;;;;5072496;28;20112;-69
2023/06/03 10:42:09;;;;;;;1.42;0.40;;;20.00;1.00;;;;;;5037614;28;20051;-65
2023/06/03 10:44:35;;;;;;;2.90;0.65;;;20.10;1.00;;;;;;5054295;28;20477;-65
2023/06/03 10:47:07;;;;;;;1.25;0.40;;;20.00;4.20;;;;;;5072378;28;20210;-65
2023/06/03 10:49:40;;;;;;;1.02;0.40;;;20.00;1.00;;;;;;5071992;28;20045;-66
2023/06/03 10:52:45;;;;;;;1.70;0.60;;;19.90;1.00;;;;;;5054466;28;20037;-66
2023/06/03 10:55:37;;;;;;;0.70;0.47;;;19.90;1.00;;;;;;5011985;28;20113;-66
2023/06/03 10:58:22;;;;;;;2.75;1.17;;;19.70;1.00;;;;;;5068136;28;20465;-66
2023/06/03 11:01:04;;;;;;;1.58;0.70;;;19.80;1.00;;;;;;5057024;28;20043;-66
2023/06/03 11:03:53;;;;;;;1.17;0.68;;;19.80;1.00;;;;;;5075972;28;20028;-67
2023/06/03 11:06:21;;;;;;;1.25;0.60;;;19.70;1.00;;;;;;5075391;28;20434;-65
2023/06/03 11:08:59;;;;;;;1.42;0.50;;;19.70;1.00;;;;;;5075834;28;20485;-66
2023/06/03 11:11:40;;;;;;;1.00;0.47;;;19.70;1.00;;;;;;5075797;28;20130;-66
2023/06/03 11:14:37;;;;;;;;;;;19.70;1.00;;;;;;5041018;28;20048;-66
2023/06/03 11:17:03;;;;;;;3.45;0.57;;;19.60;1.00;;;;;;5075218;28;19924;-66
2023/06/03 11:19:33;;;;;;;0.85;0.73;;;20.00;1.00;;;;;;5075606;28;20033;-65
2023/06/03 11:22:02;;;;;;;1.10;0.50;;;19.80;1.00;;;;;;5057658;28;20131;-65
2023/06/03 11:24:40;;;;;;;0.77;0.45;;;20.00;1.00;;;;;;5075042;28;20119;-65
2023/06/03 11:27:14;;;;;;;0.75;0.45;;;20.00;1.00;;;;;;5075342;28;20040;-66
2023/06/03 11:29:45;;;;;;;10.23;3.88;;;21.00;1.00;;;;;;5074879;28;20045;-66
2023/06/03 11:32:38;;;;;;;1.02;0.68;;;19.70;1.00;;;;;;5075283;28;20043;-65
2023/06/03 11:35:04;;;;;;;1.60;1.00;;;19.80;1.00;;;;;;5063940;28;20451;-66
2023/06/03 11:37:52;;;;;;;0.50;0.50;;;20.00;1.00;;;;;;5074708;28;20044;-66
2023/06/03 11:40:20;;;;;;;1.30;0.43;;;20.00;1.00;;;;;;5057070;28;20059;-66
2023/06/03 11:42:51;;;;;;;0.98;0.50;;;20.10;1.00;;;;;;5057018;28;20036;-66
2023/06/03 11:45:20;;;;;;;1.25;0.70;;;20.20;1.00;;;;;;5074850;28;20477;-66
2023/06/03 11:48:02;;;;;;;0.60;0.43;;;20.30;1.00;;;;;;5074903;28;20036;-68
2023/06/03 11:50:32;;;;;;;2.38;0.55;;;20.20;1.00;;;;;;5056676;28;20506;-68
2023/06/03 11:52:58;;;;;;;0.30;0.30;;;20.30;1.00;;;;;;5074907;28;20230;-68
2023/06/03 11:55:28;;;;;;;0.70;0.50;;;20.30;1.00;;;;;;5074909;28;20099;-67
2023/06/03 11:58:06;;;;;;;0.82;0.47;;;20.30;1.00;;;;;;5074561;28;20040;-66
2023/06/03 12:00:32;;;;;;;0.50;0.43;;;20.20;1.00;;;;;;5074758;28;20106;-67
2023/06/03 12:02:58;;;;;;;1.08;0.50;;;20.30;1.00;;;;;;5074845;28;20040;-68
2023/06/03 12:05:23;;;;;;;0.55;0.43;;;20.30;1.00;;;;;;5040082;28;20033;-70
2023/06/03 12:07:57;;;;;;;1.60;0.50;;;20.50;1.00;;;;;;5074705;28;20037;-69
2023/06/03 12:10:31;;;;;;;1.05;0.50;;;20.60;1.00;;;;;;5073751;28;20041;-68
2023/06/03 12:12:57;;;;;;;0.30;0.30;;;20.60;1.00;;;;;;5055844;28;20110;-68
2023/06/03 12:15:25;;;;;;;0.55;0.40;;;20.00;1.00;;;;;;5074540;28;20040;-66
2023/06/03 12:17:51;;;;;;;1.75;0.40;;;20.50;1.00;;;;;;5074510;28;20578;-67
2023/06/03 12:20:24;;;;;;;0.68;0.52;;;21.40;1.00;;;;;;5056307;28;20040;-67
2023/06/03 12:23:02;;;;;;;0.25;0.25;;;20.70;1.00;;;;;;5056450;28;20060;-67
2023/06/03 12:25:30;;;;;;;0.68;0.40;;;20.60;1.00;;;;;;5072661;28;20450;-67
2023/06/03 12:27:56;;;;;;;1.00;0.52;;;20.50;1.00;;;;;;5074318;28;20506;-66
2023/06/03 12:30:34;;;;;;;1.00;0.50;;;20.50;1.00;;;;;;5074242;28;20032;-66
2023/06/03 12:33:00;;;;;;;0.45;0.45;;;20.50;1.00;;;;;;5039468;28;20040;-66
2023/06/03 12:35:26;;;;;;;1.13;0.50;;;20.60;1.00;;;;;;5073855;28;20070;-67
2023/06/03 12:38:08;;;;;;;0.60;0.47;;;20.60;1.00;;;;;;5074061;28;20047;-66
2023/06/03 12:40:36;;;;;;;1.67;0.52;;;20.70;1.00;;;;;;5056210;28;20091;-67
2023/06/03 12:43:04;;;;;;;4.13;0.40;;;20.70;1.00;;;;;;5055690;28;20133;-64
2023/06/03 12:45:30;;;;;;;0.73;0.40;;;20.60;1.00;;;;;;5073912;28;20508;-66
2023/06/03 12:47:56;;;;;;;0.60;0.40;;;20.70;1.00;;;;;;5056074;28;20040;-67
2023/06/03 12:50:31;;;;;;;2.42;0.63;;;20.70;1.00;;;;;;5073904;28;20043;-71
2023/06/03 12:53:16;;;;;;;1.08;0.55;;;20.60;1.00;;;;;;5055862;28;20037;-68
2023/06/03 12:55:41;;;;;;;1.55;0.40;;;20.80;1.00;;;;;;5073678;28;20048;-66
2023/06/03 12:58:07;;;;;;;1.15;0.50;;;20.90;1.00;;;;;;5073711;28;20036;-67
2023/06/03 13:00:33;;;;;;;1.40;0.47;;;20.80;1.00;;;;;;5073614;28;20049;-67
2023/06/03 13:03:00;;;;;;;0.88;0.43;;;20.80;1.00;;;;;;5055518;28;20498;-67
2023/06/03 13:05:25;;;;;;;1.02;0.40;;;20.80;1.00;;;;;;5073235;28;20041;-67
2023/06/03 13:07:51;;;;;;;0.77;0.40;;;20.90;1.00;;;;;;5073441;28;20063;-67
2023/06/03 13:10:17;;;;;;;0.95;0.50;;;21.00;1.00;;;;;;5073449;28;20039;-66